Time,TemperatureF,DewpointF,PressureIn,WindDirection,WindDirectionDegrees,WindSpeedMPH,WindSpeedGustMPH,Humidity,HourlyPrecipIn,Conditions,Clouds,dailyrainin,SoftwareType,DateUTC
2013-02-20 00:09:00,34.3,33.0,29.86,ESE,114,0.0,0.0,94,0.00,,,0.00,weatherlink.com 1.10,2013-02-20 08:09:00,
2013-02-20 00:24:00,34.2,33.0,29.86,ESE,114,0.0,0.0,94,0.00,,,0.00,weatherlink.com 1.10,2013-02-20 08:24:00,
2013-02-20 00:39:00,34.0,33.0,29.87,ESE,114,0.0,0.0,94,0.00,,,0.00,weatherlink.com 1.10,2013-02-20 08:39:00,
2013-02-20 00:54:00,33.9,32.0,29.87,ESE,114,0.0,0.0,94,0.00,,,0.00,weatherlink.com 1.10,2013-02-20 08:54:00,
2013-02-20 01:09:00,33.8,32.0,29.88,ESE,114,0.0,0.0,94,0.00,,,0.00,weatherlink.com 1.10,2013-02-20 09:09:00,
2013-02-20 01:24:00,33.7,32.0,29.88,ESE,114,0.0,0.0,94,0.00,,,0.00,weatherlink.com 1.10,2013-02-20 09:24:00,
2013-02-20 01:39:00,33.6,32.0,29.88,ESE,114,0.0,0.0,94,0.00,,,0.00,weatherlink.com 1.10,2013-02-20 09:39:00,
2013-02-20 01:54:00,33.2,32.0,29.89,ESE,114,0.0,0.0,94,0.00,,,0.00,weatherlink.com 1.10,2013-02-20 09:54:00,
2013-02-20 02:09:00,33.5,32.0,29.89,ESE,117,0.0,0.0,94,0.00,,,0.00,weatherlink.com 1.10,2013-02-20 10:09:00,
2013-02-20 02:24:00,33.3,32.0,29.89,ESE,117,0.0,0.0,94,0.00,,,0.00,weatherlink.com 1.10,2013-02-20 10:24:00,
2013-02-20 02:39:00,33.3,32.0,29.89,ESE,117,0.0,0.0,94,0.00,,,0.00,weatherlink.com 1.10,2013-02-20 10:39:00,
2013-02-20 02:54:00,33.2,32.0,29.89,ESE,117,0.0,0.0,94,0.00,,,0.00,weatherlink.com 1.10,2013-02-20 10:54:00,
2013-02-20 03:09:00,33.4,32.0,29.90,ESE,117,0.0,1.0,93,0.00,,,0.00,weatherlink.com 1.10,2013-02-20 11:09:00,
2013-02-20 03:24:00,33.2,32.0,29.91,ESE,117,0.0,0.0,94,0.00,,,0.00,weatherlink.com 1.10,2013-02-20 11:24:00,
2013-02-20 03:39:00,32.8,31.0,29.91,ESE,117,0.0,0.0,94,0.00,,,0.00,weatherlink.com 1.10,2013-02-20 11:39:00,
2013-02-20 03:54:00,32.9,31.0,29.92,ESE,117,0.0,1.0,94,0.00,,,0.00,weatherlink.com 1.10,2013-02-20 11:54:00,
2013-02-20 04:09:00,33.1,32.0,29.92,ESE,117,0.0,0.0,94,0.00,,,0.00,weatherlink.com 1.10,2013-02-20 12:09:00,
2013-02-20 04:24:00,33.3,32.0,29.92,ESE,117,0.0,0.0,94,0.00,,,0.00,weatherlink.com 1.10,2013-02-20 12:24:00,
2013-02-20 04:39:00,33.4,32.0,29.92,ESE,117,0.0,0.0,93,0.00,,,0.00,weatherlink.com 1.10,2013-02-20 12:39:00,
2013-02-20 06:09:00,33.6,32.0,29.94,ESE,117,0.0,0.0,93,0.00,,,0.00,weatherlink.com 1.10,2013-02-20 14:09:00,
2013-02-20 06:25:00,33.9,32.0,29.95,ESE,117,0.0,1.0,93,0.00,,,0.00,weatherlink.com 1.10,2013-02-20 14:25:00,
2013-02-20 06:40:00,33.7,32.0,29.95,ESE,117,0.0,0.0,94,0.00,,,0.00,weatherlink.com 1.10,2013-02-20 14:40:00,
2013-02-20 06:55:00,33.1,32.0,29.96,ESE,117,0.0,0.0,94,0.00,,,0.00,weatherlink.com 1.10,2013-02-20 14:55:00,
2013-02-20 07:20:00,33.9,33.0,29.97,ESE,117,0.0,0.0,96,0.00,,,0.00,weatherlink.com 1.10,2013-02-20 15:20:00,
2013-02-20 07:25:00,34.4,33.0,29.97,ESE,117,0.0,0.0,95,0.00,,,0.00,weatherlink.com 1.10,2013-02-20 15:25:00,
2013-02-20 07:40:00,34.7,33.0,29.97,SE,132,0.0,1.0,93,0.00,,,0.00,weatherlink.com 1.10,2013-02-20 15:40:00,
2013-02-20 07:55:00,35.2,34.0,29.98,SE,131,0.0,0.0,94,0.00,,,0.00,weatherlink.com 1.10,2013-02-20 15:55:00,
2013-02-20 08:10:00,37.1,36.0,29.99,SE,131,0.0,0.0,95,0.00,,,0.00,weatherlink.com 1.10,2013-02-20 16:10:00,
2013-02-20 08:25:00,38.7,37.0,30.00,North,352,0.0,1.0,92,0.00,,,0.00,weatherlink.com 1.10,2013-02-20 16:25:00,
2013-02-20 08:40:00,40.7,38.0,30.00,North,360,0.0,1.0,89,0.00,,,0.00,weatherlink.com 1.10,2013-02-20 16:40:00,
2013-02-20 08:55:00,42.3,39.0,30.00,SSE,158,0.0,1.0,89,0.00,,,0.00,weatherlink.com 1.10,2013-02-20 16:55:00,
2013-02-20 09:10:00,43.7,40.0,30.01,SSE,150,0.0,1.0,87,0.00,,,0.00,weatherlink.com 1.10,2013-02-20 17:10:00,
2013-02-20 09:25:00,45.7,41.0,30.00,South,173,0.0,1.0,82,0.00,,,0.00,weatherlink.com 1.10,2013-02-20 17:25:00,
2013-02-20 09:40:00,46.8,41.0,30.01,North,8,1.0,2.0,80,0.00,,,0.00,weatherlink.com 1.10,2013-02-20 17:40:00,
2013-02-20 09:55:00,48.3,41.0,30.02,SSW,211,0.0,1.0,75,0.00,,,0.00,weatherlink.com 1.10,2013-02-20 17:55:00,
2013-02-20 10:10:00,49.2,42.0,30.02,SSW,202,0.0,2.0,77,0.00,,,0.00,weatherlink.com 1.10,2013-02-20 18:10:00,
2013-02-20 10:25:00,50.3,41.0,30.02,NNW,331,0.0,3.0,70,0.00,,,0.00,weatherlink.com 1.10,2013-02-20 18:25:00,
2013-02-20 10:40:00,51.1,41.0,30.02,NNW,345,0.0,2.0,68,0.00,,,0.00,weatherlink.com 1.10,2013-02-20 18:40:00,
2013-02-20 10:56:00,51.5,38.0,30.02,WNW,296,1.0,4.0,61,0.00,,,0.00,weatherlink.com 1.10,2013-02-20 18:56:00,
2013-02-20 11:11:00,52.4,39.0,30.03,ESE,112,0.0,6.0,61,0.00,,,0.00,weatherlink.com 1.10,2013-02-20 19:11:00,
2013-02-20 11:26:00,53.9,39.0,30.02,NNW,334,1.0,7.0,58,0.00,,,0.00,weatherlink.com 1.10,2013-02-20 19:26:00,
2013-02-20 11:41:00,54.9,37.0,30.02,NNE,20,1.0,3.0,52,0.00,,,0.00,weatherlink.com 1.10,2013-02-20 19:41:00,
2013-02-20 11:56:00,55.7,35.0,30.02,NW,316,1.0,3.0,46,0.00,,,0.00,weatherlink.com 1.10,2013-02-20 19:56:00,
2013-02-20 12:11:00,55.6,35.0,30.02,NNW,344,1.0,9.0,47,0.00,,,0.00,weatherlink.com 1.10,2013-02-20 20:11:00,
2013-02-20 12:26:00,56.2,34.0,30.02,NE,43,3.0,8.0,44,0.00,,,0.00,weatherlink.com 1.10,2013-02-20 20:26:00,
2013-02-20 12:41:00,56.5,33.0,30.02,North,11,2.0,5.0,42,0.00,,,0.00,weatherlink.com 1.10,2013-02-20 20:41:00,
2013-02-20 12:56:00,56.7,32.0,30.01,NNW,335,3.0,6.0,40,0.00,,,0.00,weatherlink.com 1.10,2013-02-20 20:56:00,
2013-02-20 13:11:00,57.4,33.0,30.01,NW,313,3.0,6.0,40,0.00,,,0.00,weatherlink.com 1.10,2013-02-20 21:11:00,
2013-02-20 13:26:00,57.1,31.0,30.00,NW,326,0.0,10.0,38,0.00,,,0.00,weatherlink.com 1.10,2013-02-20 21:26:00,
2013-02-20 13:41:00,57.6,35.0,30.01,NW,325,1.0,4.0,43,0.00,,,0.00,weatherlink.com 1.10,2013-02-20 21:41:00,
2013-02-20 13:56:00,58.2,33.0,30.00,West,265,0.0,3.0,39,0.00,,,0.00,weatherlink.com 1.10,2013-02-20 21:56:00,
2013-02-20 14:11:00,57.6,32.0,29.99,NW,310,0.0,3.0,38,0.00,,,0.00,weatherlink.com 1.10,2013-02-20 22:11:00,
2013-02-20 14:26:00,57.6,33.0,29.99,NNW,339,1.0,6.0,39,0.00,,,0.00,weatherlink.com 1.10,2013-02-20 22:26:00,
2013-02-20 14:41:00,57.5,37.0,29.99,ENE,75,2.0,3.0,46,0.00,,,0.00,weatherlink.com 1.10,2013-02-20 22:41:00,
2013-02-20 14:56:00,57.9,35.0,29.99,SSE,155,1.0,3.0,43,0.00,,,0.00,weatherlink.com 1.10,2013-02-20 22:56:00,
2013-02-20 15:11:00,57.8,35.0,29.99,ESE,117,1.0,3.0,42,0.00,,,0.00,weatherlink.com 1.10,2013-02-20 23:11:00,
2013-02-20 15:26:00,57.3,39.0,29.99,NW,316,0.0,4.0,50,0.00,,,0.00,weatherlink.com 1.10,2013-02-20 23:26:00,
2013-02-20 15:41:00,56.2,40.0,30.00,SSW,195,0.0,4.0,54,0.00,,,0.00,weatherlink.com 1.10,2013-02-20 23:41:00,
2013-02-20 15:56:00,54.4,40.0,30.00,SE,141,0.0,2.0,58,0.00,,,0.00,weatherlink.com 1.10,2013-02-20 23:56:00,
2013-02-20 16:11:00,53.9,40.0,30.00,SE,137,1.0,2.0,60,0.00,,,0.00,weatherlink.com 1.10,2013-02-21 00:11:00,
2013-02-20 16:26:00,53.0,40.0,30.00,SE,130,0.0,4.0,62,0.00,,,0.00,weatherlink.com 1.10,2013-02-21 00:26:00,
2013-02-20 16:41:00,51.4,41.0,30.01,SSE,152,1.0,3.0,67,0.00,,,0.00,weatherlink.com 1.10,2013-02-21 00:41:00,
2013-02-20 16:56:00,50.5,41.0,30.01,ESE,106,1.0,2.0,69,0.00,,,0.00,weatherlink.com 1.10,2013-02-21 00:56:00,
2013-02-20 17:11:00,49.4,40.0,30.01,SE,129,0.0,3.0,71,0.00,,,0.00,weatherlink.com 1.10,2013-02-21 01:11:00,
2013-02-20 17:26:00,48.3,40.0,30.01,ESE,118,1.0,1.0,74,0.00,,,0.00,weatherlink.com 1.10,2013-02-21 01:26:00,
2013-02-20 17:41:00,47.2,41.0,30.01,ESE,107,0.0,2.0,78,0.00,,,0.00,weatherlink.com 1.10,2013-02-21 01:41:00,
2013-02-20 17:56:00,46.3,40.0,30.02,SSE,165,0.0,1.0,80,0.00,,,0.00,weatherlink.com 1.10,2013-02-21 01:56:00,
2013-02-20 18:11:00,45.4,40.0,30.03,SE,133,0.0,1.0,82,0.00,,,0.00,weatherlink.com 1.10,2013-02-21 02:11:00,
2013-02-20 18:26:00,44.7,40.0,30.03,SE,133,0.0,1.0,83,0.00,,,0.00,weatherlink.com 1.10,2013-02-21 02:26:00,
2013-02-20 18:41:00,43.7,39.0,30.04,SE,133,0.0,0.0,84,0.00,,,0.00,weatherlink.com 1.10,2013-02-21 02:41:00,
2013-02-20 18:56:00,43.5,39.0,30.04,SE,145,0.0,1.0,85,0.00,,,0.00,weatherlink.com 1.10,2013-02-21 02:56:00,
2013-02-20 19:11:00,43.4,39.0,30.04,SSE,147,0.0,1.0,85,0.00,,,0.00,weatherlink.com 1.10,2013-02-21 03:11:00,
2013-02-20 19:26:00,43.3,39.0,30.04,SE,141,0.0,1.0,84,0.00,,,0.00,weatherlink.com 1.10,2013-02-21 03:26:00,
2013-02-20 19:41:00,43.2,39.0,30.05,ESE,115,0.0,1.0,84,0.00,,,0.00,weatherlink.com 1.10,2013-02-21 03:41:00,
2013-02-20 19:56:00,43.2,38.0,30.05,SE,136,0.0,1.0,83,0.00,,,0.00,weatherlink.com 1.10,2013-02-21 03:56:00,
2013-02-20 20:11:00,43.1,38.0,30.05,SE,145,0.0,1.0,83,0.00,,,0.00,weatherlink.com 1.10,2013-02-21 04:11:00,
2013-02-20 20:27:00,42.9,38.0,30.07,SE,145,0.0,1.0,83,0.00,,,0.00,weatherlink.com 1.10,2013-02-21 04:27:00,
2013-02-20 20:42:00,42.7,39.0,30.06,SSE,148,0.0,0.0,85,0.00,,,0.00,weatherlink.com 1.10,2013-02-21 04:42:00,
2013-02-20 20:57:00,42.5,38.0,30.07,SSE,150,0.0,0.0,85,0.00,,,0.00,weatherlink.com 1.10,2013-02-21 04:57:00,
2013-02-20 21:13:00,42.4,39.0,30.07,SSE,150,0.0,1.0,86,0.00,,,0.00,weatherlink.com 1.10,2013-02-21 05:13:00,
2013-02-20 21:27:00,42.7,39.0,30.07,SSE,165,0.0,1.0,86,0.00,,,0.00,weatherlink.com 1.10,2013-02-21 05:27:00,
2013-02-20 21:42:00,42.6,39.0,30.08,SE,143,0.0,1.0,86,0.00,,,0.00,weatherlink.com 1.10,2013-02-21 05:42:00,
2013-02-20 22:12:00,42.0,39.0,30.08,SE,143,0.0,0.0,89,0.00,,,0.00,weatherlink.com 1.10,2013-02-21 06:12:00,
2013-02-20 22:27:00,41.9,39.0,30.08,SE,143,0.0,0.0,89,0.00,,,0.00,weatherlink.com 1.10,2013-02-21 06:27:00,
2013-02-20 22:42:00,41.4,38.0,30.08,SE,143,0.0,0.0,89,0.00,,,0.00,weatherlink.com 1.10,2013-02-21 06:42:00,
2013-02-20 22:57:00,40.8,38.0,30.08,SE,143,0.0,0.0,90,0.00,,,0.00,weatherlink.com 1.10,2013-02-21 06:57:00,
2013-02-20 23:12:00,41.1,38.0,30.08,SE,143,0.0,0.0,90,0.00,,,0.00,weatherlink.com 1.10,2013-02-21 07:12:00,
2013-02-20 23:28:00,41.6,39.0,30.08,SSE,147,0.0,2.0,89,0.00,,,0.00,weatherlink.com 1.10,2013-02-21 07:28:00,
2013-02-20 23:42:00,41.6,39.0,30.08,SE,136,0.0,2.0,89,0.00,,,0.00,weatherlink.com 1.10,2013-02-21 07:42:00,
2013-02-20 23:57:00,41.2,38.0,30.08,SE,136,0.0,0.0,89,0.00,,,0.00,weatherlink.com 1.10,2013-02-21 07:57:00,